sensor_id;sensor_type;location;lat;lon;timestamp;temperature;humidity
11043;DHT22;5574;48.786;10.120;2023-09-19T00:01:32;16.80;99.90
11043;DHT22;5574;48.786;10.120;2023-09-19T00:04:00;16.80;99.90
11043;DHT22;5574;48.786;10.120;2023-09-19T00:06:28;16.90;99.90
11043;DHT22;5574;48.786;10.120;2023-09-19T00:08:57;16.90;99.90
11043;DHT22;5574;48.786;10.120;2023-09-19T00:11:25;17.00;99.90
11043;DHT22;5574;48.786;10.120;2023-09-19T00:13:52;17.10;99.90
11043;DHT22;5574;48.786;10.120;2023-09-19T00:16:19;17.10;99.90
11043;DHT22;5574;48.786;10.120;2023-09-19T00:18:46;17.10;99.90
11043;DHT22;5574;48.786;10.120;2023-09-19T00:21:15;17.20;99.90
11043;DHT22;5574;48.786;10.120;2023-09-19T00:23:42;17.30;99.90
11043;DHT22;5574;48.786;10.120;2023-09-19T00:26:09;17.30;99.90
11043;DHT22;5574;48.786;10.120;2023-09-19T00:28:35;17.30;99.90
11043;DHT22;5574;48.786;10.120;2023-09-19T00:31:02;17.40;99.90
11043;DHT22;5574;48.786;10.120;2023-09-19T00:33:30;17.40;99.90
11043;DHT22;5574;48.786;10.120;2023-09-19T00:35:57;17.40;99.90
11043;DHT22;5574;48.786;10.120;2023-09-19T00:38:26;17.40;99.90
11043;DHT22;5574;48.786;10.120;2023-09-19T00:40:54;17.40;99.90
11043;DHT22;5574;48.786;10.120;2023-09-19T00:43:22;17.50;99.90
11043;DHT22;5574;48.786;10.120;2023-09-19T00:45:51;17.50;99.90
11043;DHT22;5574;48.786;10.120;2023-09-19T00:48:19;17.50;99.90
11043;DHT22;5574;48.786;10.120;2023-09-19T00:50:47;17.50;99.90
11043;DHT22;5574;48.786;10.120;2023-09-19T00:53:17;17.50;99.90
11043;DHT22;5574;48.786;10.120;2023-09-19T00:55:46;17.50;99.90
11043;DHT22;5574;48.786;10.120;2023-09-19T00:58:16;17.50;99.90
11043;DHT22;5574;48.786;10.120;2023-09-19T01:00:43;17.50;99.90
11043;DHT22;5574;48.786;10.120;2023-09-19T01:03:10;17.50;99.90
11043;DHT22;5574;48.786;10.120;2023-09-19T01:05:38;17.50;99.90
11043;DHT22;5574;48.786;10.120;2023-09-19T01:08:05;17.50;99.90
11043;DHT22;5574;48.786;10.120;2023-09-19T01:10:33;17.50;99.90
11043;DHT22;5574;48.786;10.120;2023-09-19T01:13:07;17.50;99.90
11043;DHT22;5574;48.786;10.120;2023-09-19T01:15:42;17.50;99.90
11043;DHT22;5574;48.786;10.120;2023-09-19T01:18:28;17.50;99.90
11043;DHT22;5574;48.786;10.120;2023-09-19T01:21:02;17.40;99.90
11043;DHT22;5574;48.786;10.120;2023-09-19T01:23:41;17.50;99.90
11043;DHT22;5574;48.786;10.120;2023-09-19T01:26:29;17.40;99.90
11043;DHT22;5574;48.786;10.120;2023-09-19T01:29:13;17.40;99.90
11043;DHT22;5574;48.786;10.120;2023-09-19T01:31:47;17.40;99.90
11043;DHT22;5574;48.786;10.120;2023-09-19T01:34:15;17.40;99.90
11043;DHT22;5574;48.786;10.120;2023-09-19T01:36:43;17.40;99.90
11043;DHT22;5574;48.786;10.120;2023-09-19T01:39:12;17.40;99.90
11043;DHT22;5574;48.786;10.120;2023-09-19T01:41:47;17.40;99.90
11043;DHT22;5574;48.786;10.120;2023-09-19T01:44:22;17.40;99.90
11043;DHT22;5574;48.786;10.120;2023-09-19T01:46:55;17.30;99.90
11043;DHT22;5574;48.786;10.120;2023-09-19T01:49:31;17.30;99.90
11043;DHT22;5574;48.786;10.120;2023-09-19T01:52:04;17.30;99.90
11043;DHT22;5574;48.786;10.120;2023-09-19T01:54:36;17.30;99.90
11043;DHT22;5574;48.786;10.120;2023-09-19T01:57:10;17.20;99.90
11043;DHT22;5574;48.786;10.120;2023-09-19T01:59:45;17.20;99.90
11043;DHT22;5574;48.786;10.120;2023-09-19T02:02:14;17.20;99.90
11043;DHT22;5574;48.786;10.120;2023-09-19T02:04:41;17.10;99.90
11043;DHT22;5574;48.786;10.120;2023-09-19T02:07:08;17.20;99.90
11043;DHT22;5574;48.786;10.120;2023-09-19T02:09:35;17.20;99.90
11043;DHT22;5574;48.786;10.120;2023-09-19T02:12:05;17.20;99.90
11043;DHT22;5574;48.786;10.120;2023-09-19T02:14:32;17.10;99.90
11043;DHT22;5574;48.786;10.120;2023-09-19T02:17:01;17.10;99.90
11043;DHT22;5574;48.786;10.120;2023-09-19T02:19:30;17.20;99.90
11043;DHT22;5574;48.786;10.120;2023-09-19T02:21:58;17.10;99.90
11043;DHT22;5574;48.786;10.120;2023-09-19T02:24:25;17.10;99.90
11043;DHT22;5574;48.786;10.120;2023-09-19T02:26:52;17.10;99.90
11043;DHT22;5574;48.786;10.120;2023-09-19T02:29:20;17.10;99.90
11043;DHT22;5574;48.786;10.120;2023-09-19T02:31:47;17.10;99.90
11043;DHT22;5574;48.786;10.120;2023-09-19T02:34:14;17.10;99.90
11043;DHT22;5574;48.786;10.120;2023-09-19T02:36:43;17.10;99.90
11043;DHT22;5574;48.786;10.120;2023-09-19T02:39:10;17.20;99.90
11043;DHT22;5574;48.786;10.120;2023-09-19T02:41:38;17.20;99.90
11043;DHT22;5574;48.786;10.120;2023-09-19T02:44:04;17.20;99.90
11043;DHT22;5574;48.786;10.120;2023-09-19T02:46:33;17.20;99.90
11043;DHT22;5574;48.786;10.120;2023-09-19T02:49:01;17.30;99.90
11043;DHT22;5574;48.786;10.120;2023-09-19T02:51:30;17.20;99.90
11043;DHT22;5574;48.786;10.120;2023-09-19T02:53:58;17.30;99.90
11043;DHT22;5574;48.786;10.120;2023-09-19T02:56:25;17.30;99.90
11043;DHT22;5574;48.786;10.120;2023-09-19T02:58:52;17.30;99.90
11043;DHT22;5574;48.786;10.120;2023-09-19T03:01:20;17.30;99.90
11043;DHT22;5574;48.786;10.120;2023-09-19T03:03:47;17.20;99.90
11043;DHT22;5574;48.786;10.120;2023-09-19T03:06:14;17.10;99.90
11043;DHT22;5574;48.786;10.120;2023-09-19T03:08:41;17.10;99.90
11043;DHT22;5574;48.786;10.120;2023-09-19T03:11:10;17.00;99.90
11043;DHT22;5574;48.786;10.120;2023-09-19T03:13:38;17.00;99.90
11043;DHT22;5574;48.786;10.120;2023-09-19T03:16:05;17.00;99.90
11043;DHT22;5574;48.786;10.120;2023-09-19T03:18:33;17.00;99.90
11043;DHT22;5574;48.786;10.120;2023-09-19T03:21:00;17.00;99.90
11043;DHT22;5574;48.786;10.120;2023-09-19T03:23:28;17.00;99.90
11043;DHT22;5574;48.786;10.120;2023-09-19T03:25:55;16.90;99.90
11043;DHT22;5574;48.786;10.120;2023-09-19T03:28:23;16.90;99.90
11043;DHT22;5574;48.786;10.120;2023-09-19T03:31:00;16.90;99.90
11043;DHT22;5574;48.786;10.120;2023-09-19T03:33:27;16.90;99.90
11043;DHT22;5574;48.786;10.120;2023-09-19T03:35:54;16.90;99.90
11043;DHT22;5574;48.786;10.120;2023-09-19T03:38:23;16.90;99.90
11043;DHT22;5574;48.786;10.120;2023-09-19T03:40:50;16.90;99.90
11043;DHT22;5574;48.786;10.120;2023-09-19T03:43:17;16.90;99.90
11043;DHT22;5574;48.786;10.120;2023-09-19T03:45:45;16.90;99.90
11043;DHT22;5574;48.786;10.120;2023-09-19T03:48:13;16.80;99.90
11043;DHT22;5574;48.786;10.120;2023-09-19T03:50:39;16.80;99.90
11043;DHT22;5574;48.786;10.120;2023-09-19T03:53:06;16.80;99.90
11043;DHT22;5574;48.786;10.120;2023-09-19T03:55:33;16.80;99.90
11043;DHT22;5574;48.786;10.120;2023-09-19T03:58:01;16.80;99.90
11043;DHT22;5574;48.786;10.120;2023-09-19T04:00:29;16.80;99.90
11043;DHT22;5574;48.786;10.120;2023-09-19T04:02:57;16.80;99.90
11043;DHT22;5574;48.786;10.120;2023-09-19T04:05:24;16.80;99.90
11043;DHT22;5574;48.786;10.120;2023-09-19T04:07:51;16.80;99.90
11043;DHT22;5574;48.786;10.120;2023-09-19T04:10:18;16.80;99.90
11043;DHT22;5574;48.786;10.120;2023-09-19T04:12:50;16.80;99.90
11043;DHT22;5574;48.786;10.120;2023-09-19T04:15:18;16.80;99.90
11043;DHT22;5574;48.786;10.120;2023-09-19T04:17:45;16.80;99.90
11043;DHT22;5574;48.786;10.120;2023-09-19T04:20:13;16.80;99.90
11043;DHT22;5574;48.786;10.120;2023-09-19T04:22:40;16.80;99.90
11043;DHT22;5574;48.786;10.120;2023-09-19T04:25:07;16.80;99.90
11043;DHT22;5574;48.786;10.120;2023-09-19T04:27:34;16.80;99.90
11043;DHT22;5574;48.786;10.120;2023-09-19T04:30:01;16.80;99.90
11043;DHT22;5574;48.786;10.120;2023-09-19T04:32:35;16.80;99.90
11043;DHT22;5574;48.786;10.120;2023-09-19T04:35:04;16.80;99.90
11043;DHT22;5574;48.786;10.120;2023-09-19T04:37:33;16.80;99.90
11043;DHT22;5574;48.786;10.120;2023-09-19T04:40:00;16.80;99.90
11043;DHT22;5574;48.786;10.120;2023-09-19T04:42:30;16.90;99.90
11043;DHT22;5574;48.786;10.120;2023-09-19T04:44:56;16.90;99.90
11043;DHT22;5574;48.786;10.120;2023-09-19T04:47:25;16.90;99.90
11043;DHT22;5574;48.786;10.120;2023-09-19T04:49:52;16.90;99.90
11043;DHT22;5574;48.786;10.120;2023-09-19T04:52:18;16.90;99.90
11043;DHT22;5574;48.786;10.120;2023-09-19T04:54:47;16.90;99.90
11043;DHT22;5574;48.786;10.120;2023-09-19T04:57:14;16.90;99.90
11043;DHT22;5574;48.786;10.120;2023-09-19T04:59:41;16.90;99.90
11043;DHT22;5574;48.786;10.120;2023-09-19T05:02:08;16.90;99.90
11043;DHT22;5574;48.786;10.120;2023-09-19T05:07:56;16.90;99.90
11043;DHT22;5574;48.786;10.120;2023-09-19T05:10:26;16.90;99.90
11043;DHT22;5574;48.786;10.120;2023-09-19T05:12:55;17.00;99.90
11043;DHT22;5574;48.786;10.120;2023-09-19T05:15:22;17.00;99.90
11043;DHT22;5574;48.786;10.120;2023-09-19T05:17:49;17.00;99.90
11043;DHT22;5574;48.786;10.120;2023-09-19T05:20:17;17.00;99.90
11043;DHT22;5574;48.786;10.120;2023-09-19T05:22:50;17.00;99.90
11043;DHT22;5574;48.786;10.120;2023-09-19T05:25:17;17.00;99.90
11043;DHT22;5574;48.786;10.120;2023-09-19T05:27:45;17.00;99.90
11043;DHT22;5574;48.786;10.120;2023-09-19T05:30:12;17.00;99.90
11043;DHT22;5574;48.786;10.120;2023-09-19T05:32:41;17.00;99.90
11043;DHT22;5574;48.786;10.120;2023-09-19T05:35:08;17.00;99.90
11043;DHT22;5574;48.786;10.120;2023-09-19T05:37:35;17.00;99.90
11043;DHT22;5574;48.786;10.120;2023-09-19T05:40:03;17.00;99.90
11043;DHT22;5574;48.786;10.120;2023-09-19T05:42:35;17.10;99.90
11043;DHT22;5574;48.786;10.120;2023-09-19T05:45:06;17.10;99.90
11043;DHT22;5574;48.786;10.120;2023-09-19T05:47:33;17.10;99.90
11043;DHT22;5574;48.786;10.120;2023-09-19T05:50:00;17.10;99.90
11043;DHT22;5574;48.786;10.120;2023-09-19T05:52:29;17.10;99.90
11043;DHT22;5574;48.786;10.120;2023-09-19T05:54:56;17.10;99.90
11043;DHT22;5574;48.786;10.120;2023-09-19T05:57:23;17.10;99.90
11043;DHT22;5574;48.786;10.120;2023-09-19T05:59:50;17.10;99.90
11043;DHT22;5574;48.786;10.120;2023-09-19T06:02:18;17.10;99.90
11043;DHT22;5574;48.786;10.120;2023-09-19T06:04:45;17.10;99.90
11043;DHT22;5574;48.786;10.120;2023-09-19T06:07:12;17.20;99.90
11043;DHT22;5574;48.786;10.120;2023-09-19T06:09:39;17.10;99.90
11043;DHT22;5574;48.786;10.120;2023-09-19T06:12:06;17.20;99.90
11043;DHT22;5574;48.786;10.120;2023-09-19T06:14:33;17.20;99.90
11043;DHT22;5574;48.786;10.120;2023-09-19T06:16:59;17.30;99.90
11043;DHT22;5574;48.786;10.120;2023-09-19T06:19:27;17.30;99.90
11043;DHT22;5574;48.786;10.120;2023-09-19T14:10:33;22.40;93.50
11043;DHT22;5574;48.786;10.120;2023-09-19T14:13:00;22.50;93.00
11043;DHT22;5574;48.786;10.120;2023-09-19T14:15:26;22.50;93.30
11043;DHT22;5574;48.786;10.120;2023-09-19T14:17:56;22.40;94.20
11043;DHT22;5574;48.786;10.120;2023-09-19T14:20:24;22.30;93.90
11043;DHT22;5574;48.786;10.120;2023-09-19T14:22:52;22.40;94.20
11043;DHT22;5574;48.786;10.120;2023-09-19T14:25:18;22.40;94.50
11043;DHT22;5574;48.786;10.120;2023-09-19T14:27:47;22.40;94.00
11043;DHT22;5574;48.786;10.120;2023-09-19T14:30:14;22.50;93.90
11043;DHT22;5574;48.786;10.120;2023-09-19T14:32:41;22.50;94.10
11043;DHT22;5574;48.786;10.120;2023-09-19T14:35:08;22.60;94.40
11043;DHT22;5574;48.786;10.120;2023-09-19T14:37:36;22.60;93.90
11043;DHT22;5574;48.786;10.120;2023-09-19T14:40:04;22.60;93.60
11043;DHT22;5574;48.786;10.120;2023-09-19T14:42:34;22.60;94.60
11043;DHT22;5574;48.786;10.120;2023-09-19T14:45:05;22.60;93.50
11043;DHT22;5574;48.786;10.120;2023-09-19T14:47:32;22.40;93.60
11043;DHT22;5574;48.786;10.120;2023-09-19T14:50:00;22.30;94.40
11043;DHT22;5574;48.786;10.120;2023-09-19T14:52:27;22.30;94.50
11043;DHT22;5574;48.786;10.120;2023-09-19T14:54:54;22.20;93.20
11043;DHT22;5574;48.786;10.120;2023-09-19T14:57:21;22.20;93.00
11043;DHT22;5574;48.786;10.120;2023-09-19T14:59:50;22.20;93.30
11043;DHT22;5574;48.786;10.120;2023-09-19T15:02:18;22.20;92.90
11043;DHT22;5574;48.786;10.120;2023-09-19T15:04:44;22.20;93.30
11043;DHT22;5574;48.786;10.120;2023-09-19T15:07:12;22.10;93.50
11043;DHT22;5574;48.786;10.120;2023-09-19T15:09:40;22.00;93.40
11043;DHT22;5574;48.786;10.120;2023-09-19T15:12:07;21.90;93.90
11043;DHT22;5574;48.786;10.120;2023-09-19T15:14:34;21.90;93.80
11043;DHT22;5574;48.786;10.120;2023-09-19T15:17:01;21.80;94.20
11043;DHT22;5574;48.786;10.120;2023-09-19T15:19:31;21.80;94.00
11043;DHT22;5574;48.786;10.120;2023-09-19T15:21:58;21.70;94.20
11043;DHT22;5574;48.786;10.120;2023-09-19T15:24:25;21.60;94.10
11043;DHT22;5574;48.786;10.120;2023-09-19T15:26:53;21.60;94.60
11043;DHT22;5574;48.786;10.120;2023-09-19T15:29:21;21.50;94.40
11043;DHT22;5574;48.786;10.120;2023-09-19T15:31:48;21.40;95.20
11043;DHT22;5574;48.786;10.120;2023-09-19T15:34:15;21.50;95.50
11043;DHT22;5574;48.786;10.120;2023-09-19T15:36:43;21.60;96.00
11043;DHT22;5574;48.786;10.120;2023-09-19T15:39:11;21.60;94.50
11043;DHT22;5574;48.786;10.120;2023-09-19T15:41:45;21.60;95.40
11043;DHT22;5574;48.786;10.120;2023-09-19T15:44:15;21.60;94.20
11043;DHT22;5574;48.786;10.120;2023-09-19T15:46:42;21.60;95.40
11043;DHT22;5574;48.786;10.120;2023-09-19T15:49:10;21.60;95.70
11043;DHT22;5574;48.786;10.120;2023-09-19T15:51:36;21.60;95.40
11043;DHT22;5574;48.786;10.120;2023-09-19T15:54:10;21.50;94.90
11043;DHT22;5574;48.786;10.120;2023-09-19T15:56:39;21.50;95.90
11043;DHT22;5574;48.786;10.120;2023-09-19T15:59:06;21.50;95.40
11043;DHT22;5574;48.786;10.120;2023-09-19T16:01:34;21.40;95.80
11043;DHT22;5574;48.786;10.120;2023-09-19T16:04:00;21.40;95.30
11043;DHT22;5574;48.786;10.120;2023-09-19T16:06:28;21.30;95.30
11043;DHT22;5574;48.786;10.120;2023-09-19T16:08:57;21.30;96.10
11043;DHT22;5574;48.786;10.120;2023-09-19T16:11:26;21.20;96.00
11043;DHT22;5574;48.786;10.120;2023-09-19T16:13:53;21.10;96.40
11043;DHT22;5574;48.786;10.120;2023-09-19T16:16:22;21.10;96.40
11043;DHT22;5574;48.786;10.120;2023-09-19T16:18:50;21.00;96.10
11043;DHT22;5574;48.786;10.120;2023-09-19T16:21:18;21.00;96.50
11043;DHT22;5574;48.786;10.120;2023-09-19T16:23:46;20.90;97.70
11043;DHT22;5574;48.786;10.120;2023-09-19T16:26:13;20.90;98.50
11043;DHT22;5574;48.786;10.120;2023-09-19T16:28:43;20.80;98.80
11043;DHT22;5574;48.786;10.120;2023-09-19T16:31:10;20.70;99.60
11043;DHT22;5574;48.786;10.120;2023-09-19T16:33:38;20.60;99.60
11043;DHT22;5574;48.786;10.120;2023-09-19T16:36:07;20.50;99.30
11043;DHT22;5574;48.786;10.120;2023-09-19T16:38:35;20.50;99.90
11043;DHT22;5574;48.786;10.120;2023-09-19T16:41:02;20.40;99.90
11043;DHT22;5574;48.786;10.120;2023-09-19T16:43:30;20.30;99.90
11043;DHT22;5574;48.786;10.120;2023-09-19T16:46:00;20.30;99.90
11043;DHT22;5574;48.786;10.120;2023-09-19T16:48:28;20.20;99.50
11043;DHT22;5574;48.786;10.120;2023-09-19T16:50:59;20.20;99.90
11043;DHT22;5574;48.786;10.120;2023-09-19T16:53:27;20.10;99.90
11043;DHT22;5574;48.786;10.120;2023-09-19T16:55:54;20.00;99.90
11043;DHT22;5574;48.786;10.120;2023-09-19T16:58:22;19.90;99.90
11043;DHT22;5574;48.786;10.120;2023-09-19T17:00:49;19.80;99.90
11043;DHT22;5574;48.786;10.120;2023-09-19T17:03:18;19.70;99.90
11043;DHT22;5574;48.786;10.120;2023-09-19T17:05:44;19.60;99.90
11043;DHT22;5574;48.786;10.120;2023-09-19T17:08:12;19.50;99.90
11043;DHT22;5574;48.786;10.120;2023-09-19T17:10:39;19.50;99.90
11043;DHT22;5574;48.786;10.120;2023-09-19T17:13:09;19.40;99.90
11043;DHT22;5574;48.786;10.120;2023-09-19T17:15:36;19.30;99.90
11043;DHT22;5574;48.786;10.120;2023-09-19T17:18:04;19.20;99.90
11043;DHT22;5574;48.786;10.120;2023-09-19T17:20:32;19.10;99.90
11043;DHT22;5574;48.786;10.120;2023-09-19T17:22:59;19.00;99.90
11043;DHT22;5574;48.786;10.120;2023-09-19T17:25:26;19.00;99.90
11043;DHT22;5574;48.786;10.120;2023-09-19T17:27:56;19.00;99.90
11043;DHT22;5574;48.786;10.120;2023-09-19T17:30:24;18.90;99.90
11043;DHT22;5574;48.786;10.120;2023-09-19T17:32:52;18.80;99.90
11043;DHT22;5574;48.786;10.120;2023-09-19T17:35:19;18.80;99.90
11043;DHT22;5574;48.786;10.120;2023-09-19T17:37:47;18.80;99.90
11043;DHT22;5574;48.786;10.120;2023-09-19T17:40:14;18.70;99.90
11043;DHT22;5574;48.786;10.120;2023-09-19T17:42:41;18.60;99.90
11043;DHT22;5574;48.786;10.120;2023-09-19T17:45:09;18.60;99.90
11043;DHT22;5574;48.786;10.120;2023-09-19T17:47:40;18.50;99.90
11043;DHT22;5574;48.786;10.120;2023-09-19T17:50:07;18.40;99.90
11043;DHT22;5574;48.786;10.120;2023-09-19T17:52:38;18.40;99.90
11043;DHT22;5574;48.786;10.120;2023-09-19T17:55:07;18.30;99.90
11043;DHT22;5574;48.786;10.120;2023-09-19T17:57:34;18.30;99.90
11043;DHT22;5574;48.786;10.120;2023-09-19T18:00:01;18.20;99.90
11043;DHT22;5574;48.786;10.120;2023-09-19T18:02:28;18.10;99.90
11043;DHT22;5574;48.786;10.120;2023-09-19T18:04:55;18.10;99.90
11043;DHT22;5574;48.786;10.120;2023-09-19T18:07:22;18.00;99.90
11043;DHT22;5574;48.786;10.120;2023-09-19T18:09:49;17.90;99.90
11043;DHT22;5574;48.786;10.120;2023-09-19T18:12:17;17.90;99.90
11043;DHT22;5574;48.786;10.120;2023-09-19T18:14:44;17.80;99.90
11043;DHT22;5574;48.786;10.120;2023-09-19T18:17:11;17.80;99.90
11043;DHT22;5574;48.786;10.120;2023-09-19T18:19:38;17.80;99.90
11043;DHT22;5574;48.786;10.120;2023-09-19T18:22:05;17.70;99.90
11043;DHT22;5574;48.786;10.120;2023-09-19T18:24:32;17.70;99.90
11043;DHT22;5574;48.786;10.120;2023-09-19T18:26:59;17.70;99.90
11043;DHT22;5574;48.786;10.120;2023-09-19T18:29:28;17.70;99.90
11043;DHT22;5574;48.786;10.120;2023-09-19T18:31:54;17.60;99.90
11043;DHT22;5574;48.786;10.120;2023-09-19T18:34:21;17.60;99.90
11043;DHT22;5574;48.786;10.120;2023-09-19T18:36:48;17.50;99.90
11043;DHT22;5574;48.786;10.120;2023-09-19T18:39:14;17.50;99.90
11043;DHT22;5574;48.786;10.120;2023-09-19T18:41:45;17.50;99.90
11043;DHT22;5574;48.786;10.120;2023-09-19T18:44:12;17.40;99.90
11043;DHT22;5574;48.786;10.120;2023-09-19T18:46:41;17.40;99.90
11043;DHT22;5574;48.786;10.120;2023-09-19T18:49:09;17.40;99.90
11043;DHT22;5574;48.786;10.120;2023-09-19T18:51:36;17.30;99.90
11043;DHT22;5574;48.786;10.120;2023-09-19T18:54:06;17.40;99.90
11043;DHT22;5574;48.786;10.120;2023-09-19T18:56:32;17.30;99.90
11043;DHT22;5574;48.786;10.120;2023-09-19T18:59:00;17.30;99.90
11043;DHT22;5574;48.786;10.120;2023-09-19T19:01:26;17.20;99.90
11043;DHT22;5574;48.786;10.120;2023-09-19T19:03:55;17.30;99.90
11043;DHT22;5574;48.786;10.120;2023-09-19T19:06:21;17.20;99.90
11043;DHT22;5574;48.786;10.120;2023-09-19T19:08:50;17.10;99.90
11043;DHT22;5574;48.786;10.120;2023-09-19T19:11:17;17.10;99.90
11043;DHT22;5574;48.786;10.120;2023-09-19T19:13:46;17.10;99.90
11043;DHT22;5574;48.786;10.120;2023-09-19T19:16:13;17.10;99.90
11043;DHT22;5574;48.786;10.120;2023-09-19T19:18:41;16.90;99.90
11043;DHT22;5574;48.786;10.120;2023-09-19T19:21:09;17.00;99.90
11043;DHT22;5574;48.786;10.120;2023-09-19T19:23:38;16.90;99.90
11043;DHT22;5574;48.786;10.120;2023-09-19T19:26:06;16.80;99.90
11043;DHT22;5574;48.786;10.120;2023-09-19T19:28:34;16.80;99.90
11043;DHT22;5574;48.786;10.120;2023-09-19T19:31:01;16.80;99.90
11043;DHT22;5574;48.786;10.120;2023-09-19T19:33:29;16.80;99.90
11043;DHT22;5574;48.786;10.120;2023-09-19T19:36:03;16.70;99.90
11043;DHT22;5574;48.786;10.120;2023-09-19T19:38:32;16.70;99.90
11043;DHT22;5574;48.786;10.120;2023-09-19T19:40:58;16.70;99.90
11043;DHT22;5574;48.786;10.120;2023-09-19T19:43:26;16.60;99.90
11043;DHT22;5574;48.786;10.120;2023-09-19T19:45:56;16.60;99.90
11043;DHT22;5574;48.786;10.120;2023-09-19T19:48:23;16.60;99.90
11043;DHT22;5574;48.786;10.120;2023-09-19T19:50:50;16.60;99.90
11043;DHT22;5574;48.786;10.120;2023-09-19T19:53:19;16.60;99.90
11043;DHT22;5574;48.786;10.120;2023-09-19T19:55:47;16.60;99.90
11043;DHT22;5574;48.786;10.120;2023-09-19T19:58:14;16.60;99.90
11043;DHT22;5574;48.786;10.120;2023-09-19T20:00:41;16.50;99.90
11043;DHT22;5574;48.786;10.120;2023-09-19T20:03:09;16.50;99.90
11043;DHT22;5574;48.786;10.120;2023-09-19T20:05:37;16.50;99.90
11043;DHT22;5574;48.786;10.120;2023-09-19T20:08:05;16.50;99.90
11043;DHT22;5574;48.786;10.120;2023-09-19T20:10:32;16.50;99.90
11043;DHT22;5574;48.786;10.120;2023-09-19T20:13:04;16.40;99.90
11043;DHT22;5574;48.786;10.120;2023-09-19T20:15:32;16.40;99.90
11043;DHT22;5574;48.786;10.120;2023-09-19T20:17:59;16.40;99.90
11043;DHT22;5574;48.786;10.120;2023-09-19T20:20:27;16.40;99.90
11043;DHT22;5574;48.786;10.120;2023-09-19T20:22:54;16.30;99.90
11043;DHT22;5574;48.786;10.120;2023-09-19T20:25:22;16.30;99.90
11043;DHT22;5574;48.786;10.120;2023-09-19T20:27:49;16.30;99.90
11043;DHT22;5574;48.786;10.120;2023-09-19T20:30:17;16.30;99.90
11043;DHT22;5574;48.786;10.120;2023-09-19T20:32:46;16.20;99.90
11043;DHT22;5574;48.786;10.120;2023-09-19T20:35:13;16.20;99.90
11043;DHT22;5574;48.786;10.120;2023-09-19T20:37:41;16.10;99.90
11043;DHT22;5574;48.786;10.120;2023-09-19T20:40:10;16.10;99.90
11043;DHT22;5574;48.786;10.120;2023-09-19T20:42:38;16.10;99.90
11043;DHT22;5574;48.786;10.120;2023-09-19T20:45:06;16.00;99.90
11043;DHT22;5574;48.786;10.120;2023-09-19T20:47:39;16.00;99.90
11043;DHT22;5574;48.786;10.120;2023-09-19T20:50:06;16.00;99.90
11043;DHT22;5574;48.786;10.120;2023-09-19T20:52:34;16.00;99.90
11043;DHT22;5574;48.786;10.120;2023-09-19T20:55:01;16.00;99.90
11043;DHT22;5574;48.786;10.120;2023-09-19T20:57:28;15.90;99.90
11043;DHT22;5574;48.786;10.120;2023-09-19T20:59:55;15.90;99.90
11043;DHT22;5574;48.786;10.120;2023-09-19T21:02:22;15.90;99.90
11043;DHT22;5574;48.786;10.120;2023-09-19T21:04:51;15.90;99.90
11043;DHT22;5574;48.786;10.120;2023-09-19T21:07:18;15.80;99.90
11043;DHT22;5574;48.786;10.120;2023-09-19T21:09:44;15.70;99.90
11043;DHT22;5574;48.786;10.120;2023-09-19T21:12:11;15.60;99.90
11043;DHT22;5574;48.786;10.120;2023-09-19T21:14:39;15.60;99.90
11043;DHT22;5574;48.786;10.120;2023-09-19T21:17:06;15.60;99.90
11043;DHT22;5574;48.786;10.120;2023-09-19T21:19:32;15.60;99.90
11043;DHT22;5574;48.786;10.120;2023-09-19T21:22:01;15.60;99.90
11043;DHT22;5574;48.786;10.120;2023-09-19T21:24:28;15.60;99.90
11043;DHT22;5574;48.786;10.120;2023-09-19T21:26:56;15.60;99.90
11043;DHT22;5574;48.786;10.120;2023-09-19T21:29:23;15.50;99.90
11043;DHT22;5574;48.786;10.120;2023-09-19T21:31:49;15.50;99.90
11043;DHT22;5574;48.786;10.120;2023-09-19T21:34:16;15.50;99.90
11043;DHT22;5574;48.786;10.120;2023-09-19T21:36:43;15.50;99.90
11043;DHT22;5574;48.786;10.120;2023-09-19T21:39:11;15.40;99.90
11043;DHT22;5574;48.786;10.120;2023-09-19T21:41:38;15.40;99.90
11043;DHT22;5574;48.786;10.120;2023-09-19T21:44:05;15.40;99.90
11043;DHT22;5574;48.786;10.120;2023-09-19T21:46:31;15.40;99.90
11043;DHT22;5574;48.786;10.120;2023-09-19T21:48:58;15.40;99.90
11043;DHT22;5574;48.786;10.120;2023-09-19T21:51:27;15.30;99.90
11043;DHT22;5574;48.786;10.120;2023-09-19T21:53:54;15.30;99.90
11043;DHT22;5574;48.786;10.120;2023-09-19T21:56:24;15.30;99.90
11043;DHT22;5574;48.786;10.120;2023-09-19T21:58:51;15.30;99.90
11043;DHT22;5574;48.786;10.120;2023-09-19T22:01:19;15.30;99.90
11043;DHT22;5574;48.786;10.120;2023-09-19T22:03:50;15.20;99.90
11043;DHT22;5574;48.786;10.120;2023-09-19T22:06:17;15.20;99.90
11043;DHT22;5574;48.786;10.120;2023-09-19T22:08:46;15.10;99.90
11043;DHT22;5574;48.786;10.120;2023-09-19T22:11:15;15.10;99.90
11043;DHT22;5574;48.786;10.120;2023-09-19T22:13:43;15.10;99.90
11043;DHT22;5574;48.786;10.120;2023-09-19T22:16:12;15.10;99.90
11043;DHT22;5574;48.786;10.120;2023-09-19T22:18:41;15.00;99.90
11043;DHT22;5574;48.786;10.120;2023-09-19T22:21:08;15.00;99.90
11043;DHT22;5574;48.786;10.120;2023-09-19T22:23:38;15.00;99.90
11043;DHT22;5574;48.786;10.120;2023-09-19T22:26:08;15.00;99.90
11043;DHT22;5574;48.786;10.120;2023-09-19T22:28:38;15.00;99.90
11043;DHT22;5574;48.786;10.120;2023-09-19T22:31:14;14.90;99.90
11043;DHT22;5574;48.786;10.120;2023-09-19T22:33:43;14.90;99.90
11043;DHT22;5574;48.786;10.120;2023-09-19T22:36:11;14.80;99.90
11043;DHT22;5574;48.786;10.120;2023-09-19T22:38:39;14.90;99.90
11043;DHT22;5574;48.786;10.120;2023-09-19T22:41:06;14.90;99.90
11043;DHT22;5574;48.786;10.120;2023-09-19T22:43:36;14.90;99.90
11043;DHT22;5574;48.786;10.120;2023-09-19T22:46:12;14.90;99.90
11043;DHT22;5574;48.786;10.120;2023-09-19T22:48:40;14.80;99.90
11043;DHT22;5574;48.786;10.120;2023-09-19T22:51:07;14.80;99.90
11043;DHT22;5574;48.786;10.120;2023-09-19T22:53:37;14.80;99.90
11043;DHT22;5574;48.786;10.120;2023-09-19T22:56:08;14.70;99.90
11043;DHT22;5574;48.786;10.120;2023-09-19T22:58:37;14.70;99.90
11043;DHT22;5574;48.786;10.120;2023-09-19T23:01:08;14.70;99.90
11043;DHT22;5574;48.786;10.120;2023-09-19T23:03:42;14.60;99.90
11043;DHT22;5574;48.786;10.120;2023-09-19T23:06:12;14.60;99.90
11043;DHT22;5574;48.786;10.120;2023-09-19T23:08:48;14.60;99.90
11043;DHT22;5574;48.786;10.120;2023-09-19T23:11:14;14.60;99.90
11043;DHT22;5574;48.786;10.120;2023-09-19T23:13:44;14.60;99.90
11043;DHT22;5574;48.786;10.120;2023-09-19T23:16:11;14.60;99.90
11043;DHT22;5574;48.786;10.120;2023-09-19T23:18:39;14.60;99.90
11043;DHT22;5574;48.786;10.120;2023-09-19T23:21:10;14.50;99.90
11043;DHT22;5574;48.786;10.120;2023-09-19T23:23:44;14.50;99.90
11043;DHT22;5574;48.786;10.120;2023-09-19T23:26:12;14.40;99.90
11043;DHT22;5574;48.786;10.120;2023-09-19T23:28:39;14.50;99.90